createdAt,value
2023-04-01T00:01:28.804Z,98.70
2023-04-01T00:03:57.146Z,99.00
2023-04-01T00:06:24.325Z,98.70
2023-04-01T00:08:51.407Z,98.60
2023-04-01T00:11:20.536Z,98.50
2023-04-01T00:13:48.226Z,98.60
2023-04-01T00:18:48.116Z,98.60
2023-04-01T00:21:15.688Z,98.90
2023-04-01T00:23:42.713Z,98.80
2023-04-01T00:26:09.763Z,99.20
2023-04-01T00:28:37.226Z,99.40
2023-04-01T00:31:08.336Z,99.60
2023-04-01T00:33:35.398Z,99.70
2023-04-01T00:36:19.306Z,99.50
2023-04-01T00:38:46.935Z,99.40
2023-04-01T00:41:16.568Z,99.40
2023-04-01T00:43:45.968Z,99.70
2023-04-01T00:46:13.188Z,99.60
2023-04-01T00:48:44.492Z,99.90
2023-04-01T00:51:19.799Z,99.40
2023-04-01T00:53:50.038Z,99.30
2023-04-01T00:56:31.521Z,99.10
2023-04-01T00:59:02.840Z,99.30
2023-04-01T01:01:31.692Z,99.00
2023-04-01T01:03:58.687Z,99.00
2023-04-01T01:06:34.440Z,99.00
2023-04-01T01:25:15.515Z,99.40
2023-04-01T01:27:55.694Z,99.90
2023-04-01T01:30:50.425Z,99.90
2023-04-01T01:33:31.554Z,99.90
2023-04-01T01:36:01.159Z,99.90
2023-04-01T01:38:32.383Z,99.90
2023-04-01T01:41:02.337Z,99.90
2023-04-01T01:43:33.992Z,99.90
2023-04-01T01:46:05.662Z,99.90
2023-04-01T01:48:33.467Z,99.90
2023-04-01T01:51:01.524Z,99.90
2023-04-01T01:53:28.415Z,99.90
2023-04-01T01:55:55.337Z,99.90
2023-04-01T01:58:41.502Z,99.90
2023-04-01T02:01:16.299Z,99.90
2023-04-01T02:03:45.133Z,99.90
2023-04-01T02:06:16.800Z,99.90
2023-04-01T02:09:04.016Z,99.90
2023-04-01T02:11:39.068Z,99.90
2023-04-01T02:14:14.677Z,99.90
2023-04-01T02:16:50.740Z,99.90
2023-04-01T02:19:23.640Z,99.90
2023-04-01T02:21:58.581Z,99.90
2023-04-01T02:24:28.256Z,99.90
2023-04-01T02:26:55.309Z,99.90
2023-04-01T02:29:24.717Z,99.90
2023-04-01T02:31:53.068Z,99.90
2023-04-01T02:34:22.333Z,99.90
2023-04-01T02:36:50.772Z,99.90
2023-04-01T02:39:18.230Z,99.40
2023-04-01T02:41:46.597Z,99.70
2023-04-01T02:44:15.835Z,99.40
2023-04-01T02:46:43.004Z,99.40
2023-04-01T02:49:10.148Z,99.70
2023-04-01T02:51:37.099Z,99.50
2023-04-01T02:54:04.056Z,99.50
2023-04-01T02:56:31.289Z,99.80
2023-04-01T02:58:58.110Z,99.90
2023-04-01T03:01:24.999Z,99.90
2023-04-01T03:03:51.793Z,99.90
2023-04-01T03:06:18.998Z,99.90
2023-04-01T03:08:46.013Z,99.90
2023-04-01T03:11:12.897Z,99.90
2023-04-01T03:13:39.651Z,99.90
2023-04-01T03:16:06.540Z,99.90
2023-04-01T03:18:33.463Z,99.90
2023-04-01T03:21:13.589Z,99.90
2023-04-01T03:23:40.456Z,99.60
2023-04-01T03:26:07.170Z,99.40
2023-04-01T03:28:33.928Z,99.60
2023-04-01T03:31:00.711Z,99.70
2023-04-01T03:33:27.629Z,99.70
2023-04-01T03:35:54.382Z,99.80
2023-04-01T03:38:21.380Z,99.70
2023-04-01T03:40:48.209Z,99.70
2023-04-01T03:43:15.002Z,99.20
2023-04-01T03:45:51.924Z,98.90
2023-04-01T03:48:18.822Z,99.00
2023-04-01T03:50:45.997Z,99.00
2023-04-01T03:53:12.758Z,98.90
2023-04-01T03:55:40.398Z,99.10
2023-04-01T03:58:08.002Z,99.00
2023-04-01T04:00:35.021Z,98.70
2023-04-01T04:03:02.080Z,98.80
2023-04-01T04:05:28.927Z,98.90
2023-04-01T04:07:56.196Z,99.10
2023-04-01T04:10:24.303Z,98.90
2023-04-01T04:12:51.161Z,98.90
2023-04-01T04:15:17.977Z,98.50
2023-04-01T04:17:48.376Z,98.60
2023-04-01T04:20:15.430Z,98.60
2023-04-01T04:22:42.208Z,98.80
2023-04-01T04:25:09.297Z,98.50
2023-04-01T04:27:36.453Z,98.40
2023-04-01T04:30:03.806Z,98.40
2023-04-01T04:32:31.295Z,98.70
2023-04-01T04:34:58.102Z,98.80
2023-04-01T04:37:26.915Z,98.50
2023-04-01T04:39:53.751Z,98.30
2023-04-01T04:42:20.505Z,98.20
2023-04-01T04:44:47.390Z,98.40
2023-04-01T04:47:14.495Z,98.40
2023-04-01T04:49:41.435Z,98.40
2023-04-01T04:52:08.332Z,98.20
2023-04-01T04:54:35.025Z,98.10
2023-04-01T04:57:01.803Z,98.10
2023-04-01T04:59:28.556Z,98.30
2023-04-01T05:01:55.253Z,97.70
2023-04-01T05:04:21.964Z,97.90
2023-04-01T05:06:48.820Z,97.90
2023-04-01T05:09:16.312Z,97.80
2023-04-01T05:11:43.046Z,97.80
2023-04-01T05:14:14.224Z,97.90
2023-04-01T05:16:41.140Z,97.40
2023-04-01T05:19:08.008Z,97.40
2023-04-01T05:21:34.723Z,97.10
2023-04-01T05:24:01.452Z,97.30
2023-04-01T05:26:28.223Z,97.20
2023-04-01T05:28:55.271Z,97.10
2023-04-01T05:31:22.299Z,97.30
2023-04-01T05:33:49.174Z,97.20
2023-04-01T05:36:16.927Z,97.30
2023-04-01T05:38:44.250Z,97.60
2023-04-01T05:41:11.000Z,97.20
2023-04-01T05:43:38.178Z,96.60
2023-04-01T05:46:05.651Z,96.60
2023-04-01T05:48:34.135Z,97.10
2023-04-01T05:51:00.822Z,97.10
2023-04-01T05:53:27.596Z,97.10
2023-04-01T05:55:54.374Z,96.90
2023-04-01T05:58:21.193Z,97.10
2023-04-01T06:00:48.418Z,97.10
2023-04-01T06:03:20.623Z,96.60
2023-04-01T06:05:47.582Z,96.80
2023-04-01T06:08:20.326Z,97.00
2023-04-01T06:11:18.242Z,96.90
2023-04-01T06:14:23.903Z,97.20
2023-04-01T06:17:15.045Z,97.00
2023-04-01T06:20:16.182Z,96.90
2023-04-01T06:22:46.026Z,96.90
2023-04-01T06:25:50.588Z,96.90
2023-04-01T06:28:23.534Z,96.60
2023-04-01T06:30:57.188Z,96.90
2023-04-01T06:33:31.186Z,96.70
2023-04-01T06:36:03.756Z,96.80
2023-04-01T06:38:33.661Z,96.10
2023-04-01T06:41:15.731Z,95.80
2023-04-01T06:43:42.392Z,96.10
2023-04-01T06:46:14.879Z,96.00
2023-04-01T06:48:44.638Z,96.00
2023-04-01T06:51:11.313Z,95.60
2023-04-01T06:53:50.396Z,96.10
2023-04-01T06:56:19.433Z,96.10
2023-04-01T06:58:48.544Z,95.40
2023-04-01T07:01:18.011Z,95.40
2023-04-01T07:03:48.962Z,95.60
2023-04-01T07:06:28.428Z,94.60
2023-04-01T07:08:56.629Z,94.60
2023-04-01T07:11:30.703Z,95.10
2023-04-01T07:14:02.333Z,95.10
2023-04-01T07:16:48.749Z,94.30
2023-04-01T07:19:30.995Z,94.40
2023-04-01T07:21:59.670Z,94.50
2023-04-01T07:24:37.681Z,94.50
2023-04-01T07:27:06.451Z,94.40
2023-04-01T07:29:33.405Z,94.00
2023-04-01T07:32:18.971Z,94.00
2023-04-01T07:34:45.785Z,93.80
2023-04-01T07:37:12.597Z,93.70
2023-04-01T07:39:56.996Z,94.20
2023-04-01T07:42:26.776Z,94.20
2023-04-01T07:44:59.790Z,94.30
2023-04-01T07:47:36.028Z,93.90
2023-04-01T07:50:06.005Z,93.20
2023-04-01T07:52:44.738Z,93.70
2023-04-01T07:55:17.275Z,93.50
2023-04-01T07:57:44.195Z,93.70
2023-04-01T08:00:10.970Z,94.00
2023-04-01T08:02:37.846Z,93.70
2023-04-01T08:05:19.790Z,94.00
2023-04-01T08:07:46.725Z,93.50
2023-04-01T08:10:19.260Z,93.30
2023-04-01T08:12:54.429Z,92.70
2023-04-01T08:15:22.998Z,93.40
2023-04-01T08:17:55.871Z,93.80
2023-04-01T08:20:41.402Z,93.60
2023-04-01T08:23:13.613Z,93.00
2023-04-01T08:25:55.751Z,92.90
2023-04-01T08:28:30.700Z,92.00
2023-04-01T08:31:09.789Z,92.30
2023-04-01T08:33:37.308Z,92.20
2023-04-01T08:36:10.739Z,92.60
2023-04-01T08:38:58.314Z,92.80
2023-04-01T08:41:43.911Z,93.10
2023-04-01T08:44:22.743Z,92.40
2023-04-01T08:46:57.920Z,92.40
2023-04-01T08:49:43.253Z,92.30
2023-04-01T08:52:09.990Z,92.50
2023-04-01T08:55:09.339Z,91.90
2023-04-01T08:57:36.256Z,91.70
2023-04-01T09:00:18.215Z,91.10
2023-04-01T09:02:52.466Z,90.90
2023-04-01T09:05:37.994Z,91.30
2023-04-01T09:08:07.444Z,91.10
2023-04-01T09:10:53.110Z,90.70
2023-04-01T09:13:19.877Z,90.40
2023-04-01T09:15:49.663Z,90.80
2023-04-01T09:18:22.927Z,90.00
2023-04-01T09:20:58.555Z,90.10
2023-04-01T09:23:30.387Z,89.90
2023-04-01T09:26:09.327Z,90.60
2023-04-01T09:28:44.051Z,90.50
2023-04-01T09:31:11.077Z,90.60
2023-04-01T09:34:10.431Z,90.80
2023-04-01T09:36:41.362Z,90.90
2023-04-01T09:39:11.590Z,90.50
2023-04-01T09:41:48.653Z,90.30
2023-04-01T09:44:18.972Z,90.50
2023-04-01T09:46:48.828Z,90.80
2023-04-01T09:49:15.650Z,90.70
2023-04-01T09:51:52.810Z,90.60
2023-04-01T09:54:33.310Z,90.40
2023-04-01T09:57:00.137Z,90.10
2023-04-01T09:59:32.912Z,90.30
2023-04-01T10:02:20.076Z,90.50
2023-04-01T10:04:56.367Z,91.10
2023-04-01T10:07:29.123Z,92.00
2023-04-01T10:09:55.824Z,92.40
2023-04-01T10:12:26.095Z,92.10
2023-04-01T10:15:11.237Z,91.70
2023-04-01T10:17:59.860Z,92.90
2023-04-01T10:20:29.444Z,92.40
2023-04-01T10:22:59.375Z,92.00
2023-04-01T10:25:29.066Z,92.20
2023-04-01T10:28:04.681Z,92.20
2023-04-01T10:30:37.694Z,92.40
2023-04-01T10:33:16.601Z,92.60
2023-04-01T10:36:03.372Z,92.50
2023-04-01T10:38:41.632Z,92.60
2023-04-01T10:41:08.304Z,92.40
2023-04-01T10:44:05.749Z,92.70
2023-04-01T10:46:54.409Z,93.30
2023-04-01T10:49:39.964Z,92.70
2023-04-01T10:52:12.974Z,92.80
2023-04-01T10:54:51.344Z,93.70
2023-04-01T10:57:24.081Z,93.20
2023-04-01T11:00:04.782Z,93.90
2023-04-01T11:02:34.735Z,93.00
2023-04-01T11:05:21.111Z,93.40
2023-04-01T11:07:55.842Z,93.40
2023-04-01T11:10:48.233Z,92.50
2023-04-01T11:13:15.036Z,92.50
2023-04-01T11:16:00.479Z,93.20
2023-04-01T11:18:27.321Z,92.60
2023-04-01T11:20:54.139Z,92.60
2023-04-01T11:23:29.340Z,91.90
2023-04-01T11:26:14.393Z,92.10
2023-04-01T11:28:59.834Z,91.80
2023-04-01T11:31:55.989Z,90.20
2023-04-01T11:34:25.521Z,89.80
2023-04-01T11:37:00.777Z,89.40
2023-04-01T11:39:47.869Z,90.70
2023-04-01T11:42:19.101Z,89.40
2023-04-01T11:45:01.888Z,89.20
2023-04-01T11:47:44.148Z,89.40
2023-04-01T11:50:11.520Z,89.70
2023-04-01T11:53:04.588Z,90.00
2023-04-01T11:55:47.354Z,89.60
2023-04-01T11:58:14.802Z,89.60
2023-04-01T12:00:56.924Z,89.30
2023-04-01T12:03:44.504Z,88.60
2023-04-01T12:06:11.376Z,88.60
2023-04-01T12:08:54.669Z,88.00
2023-04-01T12:11:27.257Z,88.00
2023-04-01T12:14:00.134Z,87.80
2023-04-01T12:16:37.566Z,87.10
2023-04-01T12:19:24.625Z,86.80
2023-04-01T12:22:09.852Z,86.30
2023-04-01T12:24:50.564Z,86.10
2023-04-01T12:27:20.565Z,86.60
2023-04-01T12:29:54.458Z,87.20
2023-04-01T12:32:30.604Z,87.30
2023-04-01T12:35:15.812Z,87.30
2023-04-01T12:37:42.608Z,88.00
2023-04-01T12:40:15.550Z,87.70
2023-04-01T12:42:48.231Z,87.50
2023-04-01T12:45:23.912Z,86.90
2023-04-01T12:47:56.640Z,86.80
2023-04-01T12:50:31.100Z,86.50
2023-04-01T12:53:16.898Z,86.20
2023-04-01T12:55:45.440Z,85.20
2023-04-01T12:58:18.156Z,85.40
2023-04-01T13:00:57.506Z,85.20
2023-04-01T13:03:24.330Z,85.50
2023-04-01T13:06:09.892Z,86.10
2023-04-01T13:08:45.738Z,86.00
2023-04-01T13:11:28.297Z,85.30
2023-04-01T13:13:57.795Z,84.70
2023-04-01T13:16:28.522Z,85.00
2023-04-01T13:18:58.064Z,85.00
2023-04-01T13:21:33.628Z,85.30
2023-04-01T13:24:14.950Z,85.30
2023-04-01T13:26:41.707Z,85.00
2023-04-01T13:29:31.696Z,85.00
2023-04-01T13:32:11.019Z,84.60
2023-04-01T13:34:48.657Z,85.10
2023-04-01T13:37:38.091Z,84.70
2023-04-01T13:40:05.592Z,84.40
2023-04-01T13:42:38.916Z,84.70
2023-04-01T13:45:26.094Z,84.40
2023-04-01T13:47:56.011Z,84.60
2023-04-01T13:50:34.952Z,84.60
2023-04-01T13:53:07.333Z,84.70
2023-04-01T13:55:52.832Z,84.20
2023-04-01T13:58:38.105Z,84.10
2023-04-01T14:01:23.529Z,83.90
2023-04-01T14:03:56.090Z,84.00
2023-04-01T14:06:50.469Z,83.60
2023-04-01T14:09:36.226Z,83.30
2023-04-01T14:12:05.852Z,82.80
2023-04-01T14:14:32.965Z,82.60
2023-04-01T14:17:18.349Z,82.50
2023-04-01T14:19:51.321Z,82.80
2023-04-01T14:22:41.240Z,82.80
2023-04-01T14:25:14.204Z,82.60
2023-04-01T14:27:52.206Z,82.40
2023-04-01T14:30:42.545Z,82.50
2023-04-01T14:33:18.772Z,82.60
2023-04-01T14:36:01.999Z,82.70
2023-04-01T14:38:31.946Z,82.60
2023-04-01T14:41:17.368Z,82.60
2023-04-01T14:44:11.913Z,82.80
2023-04-01T14:46:38.748Z,82.80
2023-04-01T14:49:24.196Z,82.00
2023-04-01T14:51:52.982Z,82.20
2023-04-01T14:54:38.810Z,82.90
2023-04-01T14:57:17.597Z,82.50
2023-04-01T14:59:49.234Z,83.10
2023-04-01T15:02:24.857Z,83.90
2023-04-01T15:04:57.112Z,84.10
2023-04-01T15:07:42.275Z,85.40
2023-04-01T15:10:20.490Z,85.00
2023-04-01T15:12:53.210Z,84.10
2023-04-01T15:15:26.119Z,83.70
2023-04-01T15:17:53.507Z,83.90
2023-04-01T15:20:23.526Z,83.40
2023-04-01T15:23:11.141Z,83.90
2023-04-01T15:25:51.571Z,84.00
2023-04-01T15:28:32.078Z,83.20
2023-04-01T15:31:03.679Z,83.10
2023-04-01T15:33:33.511Z,82.80
2023-04-01T15:36:09.121Z,82.60
2023-04-01T15:38:35.991Z,82.80
2023-04-01T15:41:19.521Z,82.70
2023-04-01T15:43:50.714Z,83.20
2023-04-01T15:46:17.471Z,82.30
2023-04-01T15:48:58.788Z,82.40
2023-04-01T15:51:44.188Z,83.20
2023-04-01T15:54:37.258Z,83.50
2023-04-01T15:57:10.512Z,83.40
2023-04-01T15:59:37.542Z,83.70
2023-04-01T16:02:23.605Z,84.30
2023-04-01T16:05:03.894Z,84.20
2023-04-01T16:08:00.282Z,84.80
2023-04-01T16:10:27.239Z,85.20
2023-04-01T16:13:00.179Z,84.40
2023-04-01T16:15:42.583Z,84.40
2023-04-01T16:18:27.951Z,84.80
2023-04-01T16:21:14.905Z,85.50
2023-04-01T16:23:52.975Z,85.60
2023-04-01T16:26:39.932Z,85.50
2023-04-01T16:29:06.639Z,85.80
2023-04-01T16:31:38.157Z,85.80
2023-04-01T16:34:15.827Z,85.80
2023-04-01T16:36:50.777Z,86.40
2023-04-01T16:39:29.682Z,86.20
2023-04-01T16:42:08.355Z,86.60
2023-04-01T16:44:50.420Z,86.70
2023-04-01T16:47:20.352Z,86.50
2023-04-01T16:49:56.715Z,86.70
2023-04-01T16:52:41.605Z,86.80
2023-04-01T16:55:19.002Z,87.30
2023-04-01T16:57:51.875Z,87.40
2023-04-01T17:00:37.471Z,87.40
2023-04-01T17:03:11.003Z,87.50
2023-04-01T17:05:47.843Z,87.40
2023-04-01T17:08:17.846Z,87.80
2023-04-01T17:10:47.813Z,87.90
2023-04-01T17:13:39.171Z,87.80
2023-04-01T17:16:21.872Z,88.40
2023-04-01T17:18:59.529Z,88.60
2023-04-01T17:21:29.585Z,88.80
2023-04-01T17:24:19.387Z,88.90
2023-04-01T17:27:02.204Z,88.70
2023-04-01T17:29:42.584Z,88.80
2023-04-01T17:32:14.360Z,88.80
2023-04-01T17:34:44.021Z,88.70
2023-04-01T17:37:10.838Z,88.70
2023-04-01T17:39:56.428Z,88.60
2023-04-01T17:42:32.063Z,88.50
2023-04-01T17:45:20.462Z,88.60
2023-04-01T17:47:50.562Z,88.80
2023-04-01T17:50:26.472Z,88.70
2023-04-01T17:52:59.291Z,89.10
2023-04-01T17:55:41.614Z,89.10
2023-04-01T17:58:31.700Z,89.20
2023-04-01T18:01:01.504Z,89.50
2023-04-01T18:03:31.201Z,89.30
2023-04-01T18:06:01.123Z,89.20
2023-04-01T18:08:37.984Z,89.60
2023-04-01T18:11:14.357Z,89.50
2023-04-01T18:13:59.710Z,89.80
2023-04-01T18:16:50.057Z,90.00
2023-04-01T18:19:44.235Z,89.60
2023-04-01T18:22:22.993Z,90.00
2023-04-01T18:25:08.340Z,90.20
2023-04-01T18:27:41.635Z,90.10
2023-04-01T18:30:15.945Z,90.60
2023-04-01T18:33:06.654Z,90.70
2023-04-01T18:35:42.621Z,90.80
2023-04-01T18:38:34.582Z,90.80
2023-04-01T18:41:22.724Z,90.70
2023-04-01T18:44:08.556Z,90.40
2023-04-01T18:46:44.133Z,90.10
2023-04-01T18:49:41.678Z,90.00
2023-04-01T18:52:26.331Z,89.70
2023-04-01T18:55:02.571Z,90.10
2023-04-01T18:57:50.397Z,89.50
2023-04-01T19:00:23.404Z,90.20
2023-04-01T19:02:53.604Z,90.60
2023-04-01T19:05:24.568Z,90.30
2023-04-01T19:07:52.974Z,90.00
2023-04-01T19:10:32.268Z,90.00
2023-04-01T19:13:17.414Z,89.90
2023-04-01T19:15:44.231Z,90.20
2023-04-01T19:18:17.434Z,90.10
2023-04-01T19:20:49.324Z,90.10
2023-04-01T19:23:38.558Z,89.70
2023-04-01T19:26:11.568Z,89.80
2023-04-01T19:28:49.718Z,90.00
2023-04-01T19:31:34.744Z,90.40
2023-04-01T19:34:20.763Z,90.60
2023-04-01T19:36:48.604Z,90.70
2023-04-01T19:39:33.731Z,90.80
2023-04-01T19:42:03.872Z,90.40
2023-04-01T19:44:51.140Z,90.40
2023-04-01T19:47:30.086Z,90.70
2023-04-01T19:50:17.784Z,90.80
2023-04-01T19:52:48.622Z,90.80
2023-04-01T19:55:44.059Z,90.70
2023-04-01T19:58:22.663Z,90.60
2023-04-01T20:00:55.194Z,90.60
2023-04-01T20:03:36.511Z,90.50
2023-04-01T20:06:11.497Z,90.30
2023-04-01T20:08:57.284Z,90.40
2023-04-01T20:11:33.509Z,90.50
2023-04-01T20:14:00.472Z,90.90
2023-04-01T20:16:55.373Z,90.90
2023-04-01T20:19:41.233Z,90.70
2023-04-01T20:22:40.463Z,90.80
2023-04-01T20:25:22.010Z,91.00
2023-04-01T20:28:10.256Z,91.00
2023-04-01T20:30:56.044Z,91.00
2023-04-01T20:33:42.172Z,90.70
2023-04-01T20:36:08.923Z,90.90
2023-04-01T20:38:54.607Z,90.90
2023-04-01T20:41:21.464Z,90.90
2023-04-01T20:44:08.089Z,90.70
2023-04-01T20:46:38.566Z,90.60
2023-04-01T20:49:42.616Z,90.80
2023-04-01T20:52:24.086Z,91.00
2023-04-01T20:55:14.769Z,91.30
2023-04-01T20:58:13.458Z,91.40
2023-04-01T21:00:49.244Z,91.30
2023-04-01T21:03:31.465Z,91.80
2023-04-01T21:06:29.089Z,91.90
2023-04-01T21:09:18.657Z,91.80
2023-04-01T21:11:54.688Z,92.00
2023-04-01T21:14:59.941Z,91.80
2023-04-01T21:17:26.890Z,91.80
2023-04-01T21:19:53.573Z,91.90
2023-04-01T21:22:26.408Z,92.10
2023-04-01T21:25:02.425Z,91.80
2023-04-01T21:27:56.508Z,91.60
2023-04-01T21:30:41.548Z,91.30
2023-04-01T21:33:26.929Z,91.60
2023-04-01T21:35:59.526Z,91.80
2023-04-01T21:38:36.305Z,91.70
2023-04-01T21:41:17.354Z,91.60
2023-04-01T21:44:25.945Z,91.20
2023-04-01T21:47:13.662Z,91.20
2023-04-01T21:50:05.460Z,90.90
2023-04-01T21:52:50.885Z,91.00
2023-04-01T21:55:43.039Z,90.90
2023-04-01T21:58:34.063Z,91.00
2023-04-01T22:01:38.358Z,90.80
2023-04-01T22:04:19.441Z,91.20
2023-04-01T22:07:06.542Z,91.30
2023-04-01T22:09:38.932Z,91.10
2023-04-01T22:12:15.955Z,91.00
2023-04-01T22:14:45.820Z,90.60
2023-04-01T22:17:18.048Z,90.30
2023-04-01T22:19:47.775Z,90.60
2023-04-01T22:22:18.883Z,90.50
2023-04-01T22:25:13.677Z,90.60
2023-04-01T22:27:57.168Z,90.70
2023-04-01T22:30:28.906Z,90.50
2023-04-01T22:33:07.412Z,90.30
2023-04-01T22:36:05.132Z,90.20
2023-04-01T22:38:40.482Z,90.60
2023-04-01T22:41:32.072Z,90.50
2023-04-01T22:44:00.620Z,90.50
2023-04-01T22:46:35.139Z,90.60
2023-04-01T22:49:23.502Z,90.30
2023-04-01T22:52:30.387Z,90.50
2023-04-01T22:55:13.524Z,90.50
2023-04-01T22:57:51.848Z,90.50
2023-04-01T23:00:35.130Z,90.70
2023-04-01T23:03:17.295Z,90.70
2023-04-01T23:05:52.339Z,90.50
2023-04-01T23:08:43.712Z,90.50
2023-04-01T23:11:22.869Z,90.60
2023-04-01T23:14:06.097Z,90.70
2023-04-01T23:16:40.076Z,90.40
2023-04-01T23:19:09.710Z,90.10
2023-04-01T23:22:07.605Z,90.40
2023-04-01T23:24:56.489Z,90.00
2023-04-01T23:27:31.787Z,90.20
2023-04-01T23:29:58.693Z,89.60
2023-04-01T23:32:27.437Z,89.80
2023-04-01T23:34:58.115Z,89.40
2023-04-01T23:37:25.681Z,89.30
2023-04-01T23:39:59.960Z,89.20
2023-04-01T23:42:39.967Z,89.20
2023-04-01T23:45:18.131Z,89.30
2023-04-01T23:47:49.905Z,88.40
2023-04-01T23:50:25.304Z,88.20
2023-04-01T23:53:04.096Z,87.70
2023-04-01T23:55:35.742Z,88.00
2023-04-01T23:58:02.753Z,87.50
